Terminal Aerodrome Forecast
Issued by NWS

Home | Current Version | Previous Version | Graphics & Text | Print | Product List | Glossary On
Versions: 1 2 3 4 5 6 7 8 9 10 11 12 13 14 15 16
000
FTUS43 KGRB 270531
TAFAUW
TAF
KAUW 270531Z 2706/2806 VRB03KT P6SM SKC
     FM270800 VRB03KT 5SM BR SKC
      TEMPO 2709/2712 2SM BR
     FM271300 13005KT P6SM FEW040 SCT200
     FM280000 12003KT P6SM SCT200=

USA.gov is the U.S. government's official web portal to all federal, state and local government web resources and services.